Time;durP1;ratioP1;P1;durP2;ratioP2;P2;SDS_P1;SDS_P2;PMS_P1;PMS_P2;Temp;Humidity;BMP_temperature;BMP_pressure;BME280_temperature;BME280_humidity;BME280_pressure;Samples;Min_cycle;Max_cycle;Signal;HPM_P1;HPM_P2
2023/03/03 00:00:02;;;;;;;254.73;21.10;;;;;;;;;;5052686;28;20123;-50
2023/03/03 00:02:28;;;;;;;439.33;28.83;;;;;;;;;;5053467;28;20174;-51
2023/03/03 00:04:54;;;;;;;108.13;18.23;;;1.00;99.90;;;;;;5055293;28;20041;-49
2023/03/03 00:07:21;;;;;;;151.82;18.13;;;;;;;;;;5055567;28;20048;-46
2023/03/03 00:09:48;;;;;;;178.23;19.30;;;0.70;99.90;;;;;;5056348;28;20041;-50
2023/03/03 00:12:26;;;;;;;402.27;27.20;;;0.70;99.90;;;;;;5056717;28;20398;-48
2023/03/03 00:14:52;;;;;;;198.80;20.20;;;;;;;;;;5055339;28;20036;-48
2023/03/03 00:17:24;;;;;;;284.52;24.10;;;1.50;99.90;;;;;;5055975;28;20040;-47
2023/03/03 00:19:50;;;;;;;384.23;26.17;;;;;;;;;;5054984;28;20044;-49
2023/03/03 00:22:36;;;;;;;95.80;14.27;;;;;;;;;;5056917;28;20032;-50
2023/03/03 00:25:27;;;;;;;200.75;18.42;;;0.40;99.90;;;;;;5056404;28;20501;-48
2023/03/03 00:27:54;;;;;;;316.67;23.40;;;;;;;;;;5055820;28;20044;-46
2023/03/03 00:30:24;;;;;;;268.58;20.10;;;0.30;99.90;;;;;;5056058;28;20962;-47
2023/03/03 00:32:51;;;;;;;148.55;16.58;;;;;;;;;;5053901;28;20036;-48
2023/03/03 00:35:24;;;;;;;136.93;16.83;;;0.30;99.90;;;;;;5056106;28;20048;-48
2023/03/03 00:37:55;;;;;;;240.60;18.85;;;0.30;99.90;;;;;;5055116;28;20033;-47
2023/03/03 00:40:50;;;;;;;111.55;15.30;;;0.20;99.90;;;;;;5055040;28;20052;-48
2023/03/03 00:43:16;;;;;;;183.70;17.65;;;;;;;;;;5041862;28;20052;-49
2023/03/03 00:45:46;;;;;;;331.10;21.27;;;;;;;;;;5055393;28;20037;-49
2023/03/03 00:48:41;;;;;;;251.15;17.52;;;0.10;99.90;;;;;;5055310;28;20068;-49
2023/03/03 00:51:28;;;;;;;256.30;17.77;;;;;;;;;;5056324;28;20044;-46
2023/03/03 00:53:54;;;;;;;320.83;20.10;;;;;;;;;;5055459;28;20616;-48
2023/03/03 00:56:20;;;;;;;255.93;18.40;;;;;;;;;;5055300;28;20036;-47
2023/03/03 00:58:47;;;;;;;287.65;19.63;;;;;;;;;;5052997;28;20037;-47
2023/03/03 01:01:13;;;;;;;255.27;18.50;;;;;;;;;;5056387;28;20040;-49
2023/03/03 01:03:39;;;;;;;199.75;16.33;;;;;;;;;;5054016;28;20053;-46
2023/03/03 01:06:06;;;;;;;200.50;16.13;;;;;;;;;;5055884;28;20063;-50
2023/03/03 01:08:32;;;;;;;240.27;16.33;;;;;;;;;;5053221;28;20143;-49
2023/03/03 01:10:59;;;;;;;108.03;12.02;;;;;;;;;;5055318;28;21167;-48
2023/03/03 01:13:27;;;;;;;130.70;12.45;;;;;;;;;;5055338;28;20397;-50
2023/03/03 01:15:54;;;;;;;356.80;19.65;;;;;;;;;;5055522;28;20529;-49
2023/03/03 01:18:20;;;;;;;422.17;22.00;;;;;;;;;;5055420;28;20029;-49
2023/03/03 01:20:46;;;;;;;259.55;16.13;;;;;;;;;;5054921;28;20045;-50
2023/03/03 01:23:12;;;;;;;237.55;16.42;;;;;;;;;;5054954;28;20413;-48
2023/03/03 01:25:38;;;;;;;257.67;16.30;;;;;;;;;;5055231;28;20185;-47
2023/03/03 01:28:05;;;;;;;185.60;14.02;;;;;;;;;;5054225;28;20526;-49
2023/03/03 01:30:31;;;;;;;139.48;14.00;;;;;;;;;;5054794;28;20078;-48
2023/03/03 01:32:58;;;;;;;254.27;16.23;;;;;;;;;;5054160;28;20389;-48
2023/03/03 01:35:24;;;;;;;256.08;16.52;;;;;;;;;;5055490;28;20044;-49
2023/03/03 01:37:50;;;;;;;104.70;11.95;;;;;;;;;;5054084;28;20494;-50
2023/03/03 01:40:22;;;;;;;183.65;15.95;;;-0.90;99.90;;;;;;5053275;28;20105;-50
2023/03/03 01:42:49;;;;;;;127.10;13.23;;;;;;;;;;5053291;28;20040;-49
2023/03/03 01:45:26;;;;;;;156.10;14.65;;;-1.00;99.90;;;;;;5053532;28;20552;-50
2023/03/03 01:47:52;;;;;;;154.93;14.50;;;;;;;;;;5053117;28;20106;-48
2023/03/03 01:50:37;;;;;;;79.50;11.20;;;;;;;;;;5053617;28;20044;-49
2023/03/03 01:53:04;;;;;;;77.20;11.35;;;;;;;;;;5053711;28;20075;-50
2023/03/03 01:55:33;;;;;;;105.05;13.32;;;;;;;;;;5053916;28;20044;-48
2023/03/03 01:58:02;;;;;;;84.43;12.63;;;;;;;;;;5055091;28;20040;-47
2023/03/03 02:00:29;;;;;;;179.13;14.27;;;;;;;;;;5053180;28;20040;-49
2023/03/03 02:02:55;;;;;;;123.85;12.88;;;;;;;;;;5053036;28;20677;-47
2023/03/03 02:05:21;;;;;;;108.38;11.15;;;;;;;;;;5055144;28;20048;-50
2023/03/03 02:07:48;;;;;;;193.63;15.27;;;;;;;;;;5054564;28;20505;-50
2023/03/03 02:10:16;;;;;;;143.23;12.52;;;;;;;;;;5052956;28;20039;-50
2023/03/03 02:12:42;;;;;;;114.70;13.32;;;;;;;;;;5053943;28;20180;-50
2023/03/03 02:15:15;;;;;;;163.60;13.45;;;-1.00;99.90;;;;;;5053815;28;20445;-49
2023/03/03 02:17:41;;;;;;;302.42;20.85;;;;;;;;;;5053322;28;20036;-51
2023/03/03 02:20:16;;;;;;;250.77;16.05;;;;;;;;;;5054523;28;20049;-47
2023/03/03 02:23:01;;;;;;;243.60;16.35;;;;;;;;;;5052565;28;20040;-47
2023/03/03 02:25:38;;;;;;;182.57;15.00;;;-1.40;99.90;;;;;;5054797;28;20098;-48
2023/03/03 02:28:05;;;;;;;286.15;19.10;;;;;;;;;;5053122;28;20037;-50
2023/03/03 02:30:36;;;;;;;298.58;19.05;;;;;;;;;;5054464;28;20066;-45
2023/03/03 02:33:02;;;;;;;213.23;15.75;;;;;;;;;;5053401;28;20044;-48
2023/03/03 02:35:33;;;;;;;269.10;18.58;;;;;;;;;;5054939;28;20469;-48
2023/03/03 02:38:03;;;;;;;166.65;15.57;;;;;;;;;;5053053;28;20565;-47
2023/03/03 02:40:33;;;;;;;181.77;15.45;;;;;;;;;;5053360;28;20053;-53
2023/03/03 02:43:01;;;;;;;132.07;14.77;;;-1.40;99.90;;;;;;5053244;28;20105;-48
2023/03/03 02:45:27;;;;;;;170.25;14.18;;;;;;;;;;5053576;28;20436;-47
2023/03/03 02:47:53;;;;;;;141.07;14.13;;;;;;;;;;5053543;28;20055;-47
2023/03/03 02:50:19;;;;;;;192.27;15.50;;;;;;;;;;5052637;28;20033;-46
2023/03/03 02:52:45;;;;;;;164.82;13.43;;;;;;;;;;5053935;28;20048;-47
2023/03/03 02:55:11;;;;;;;121.15;13.27;;;;;;;;;;5053675;28;20040;-46
2023/03/03 02:57:38;;;;;;;64.38;10.98;;;;;;;;;;5053966;28;20055;-47
2023/03/03 03:00:04;;;;;;;83.10;13.25;;;;;;;;;;5052640;28;20036;-45
2023/03/03 03:02:30;;;;;;;75.97;12.57;;;;;;;;;;5053542;28;20570;-45
2023/03/03 03:04:57;;;;;;;86.50;12.02;;;;;;;;;;5054163;28;20051;-45
2023/03/03 03:07:23;;;;;;;50.42;11.50;;;;;;;;;;5052580;28;20041;-45
2023/03/03 03:09:49;;;;;;;38.03;10.85;;;;;;;;;;5052389;28;20041;-47
2023/03/03 03:12:18;;;;;;;51.28;12.85;;;;;;;;;;5053420;28;20040;-47
2023/03/03 03:14:44;;;;;;;26.77;11.45;;;;;;;;;;5052805;28;20064;-50
2023/03/03 03:17:11;;;;;;;46.88;13.27;;;;;;;;;;5052789;28;20106;-48
2023/03/03 03:19:37;;;;;;;36.42;11.68;;;;;;;;;;5051452;28;20082;-50
2023/03/03 03:22:03;;;;;;;27.98;11.80;;;;;;;;;;5052224;28;20829;-47
2023/03/03 03:24:29;;;;;;;32.20;12.10;;;;;;;;;;5053867;28;20095;-49
2023/03/03 03:26:56;;;;;;;25.48;11.90;;;;;;;;;;5054643;28;20105;-50
2023/03/03 03:29:22;;;;;;;19.08;11.18;;;;;;;;;;5052604;28;20116;-50
2023/03/03 03:31:48;;;;;;;21.27;11.40;;;;;;;;;;5053483;28;20098;-47
2023/03/03 03:34:14;;;;;;;19.48;10.88;;;;;;;;;;5053844;28;20210;-47
2023/03/03 03:36:41;;;;;;;18.40;10.63;;;;;;;;;;5052710;28;20493;-46
2023/03/03 03:39:08;;;;;;;19.35;10.40;;;;;;;;;;5053702;28;20052;-49
2023/03/03 03:41:34;;;;;;;16.88;10.38;;;;;;;;;;5057482;28;20044;-47
2023/03/03 03:44:00;;;;;;;14.73;9.27;;;;;;;;;;5057649;28;20578;-47
2023/03/03 03:46:26;;;;;;;16.50;9.48;;;;;;;;;;5056913;28;20045;-49
2023/03/03 03:48:52;;;;;;;15.77;9.77;;;;;;;;;;5055692;28;20060;-49
2023/03/03 03:51:18;;;;;;;16.13;9.48;;;;;;;;;;5057010;28;20129;-45
2023/03/03 03:53:45;;;;;;;14.40;9.75;;;;;;;;;;5056381;28;20048;-50
2023/03/03 03:56:11;;;;;;;16.50;9.77;;;;;;;;;;5057555;28;20048;-50
2023/03/03 03:58:37;;;;;;;13.05;8.93;;;;;;;;;;5057901;28;20170;-50
2023/03/03 04:01:04;;;;;;;14.48;9.18;;;;;;;;;;5056518;28;20041;-49
2023/03/03 04:03:30;;;;;;;13.48;8.45;;;;;;;;;;5055981;28;20075;-50
2023/03/03 04:05:56;;;;;;;13.90;8.93;;;;;;;;;;5058007;28;20459;-50
2023/03/03 04:08:22;;;;;;;11.50;8.07;;;;;;;;;;5055858;28;20036;-50
2023/03/03 04:10:48;;;;;;;14.15;9.20;;;;;;;;;;5056160;28;20044;-50
2023/03/03 04:13:14;;;;;;;13.43;8.80;;;;;;;;;;5055872;28;20045;-49
2023/03/03 04:15:41;;;;;;;13.77;9.10;;;;;;;;;;5057060;28;20049;-47
2023/03/03 04:18:07;;;;;;;14.90;9.70;;;;;;;;;;5055609;28;20068;-49
2023/03/03 04:20:33;;;;;;;18.95;11.32;;;;;;;;;;5055286;28;20059;-46
2023/03/03 04:22:59;;;;;;;16.77;10.45;;;;;;;;;;5055256;28;20053;-47
2023/03/03 04:25:25;;;;;;;14.38;9.75;;;;;;;;;;5055784;28;20094;-48
2023/03/03 04:27:53;;;;;;;17.10;10.40;;;;;;;;;;5055700;28;20036;-49
2023/03/03 04:30:19;;;;;;;15.70;10.45;;;;;;;;;;5055372;28;20089;-50
2023/03/03 04:32:46;;;;;;;14.55;9.80;;;;;;;;;;5055425;28;20041;-47
2023/03/03 04:35:12;;;;;;;15.18;9.27;;;;;;;;;;5055402;28;20056;-48
2023/03/03 04:37:38;;;;;;;14.45;9.95;;;;;;;;;;5055723;28;20063;-50
2023/03/03 04:40:06;;;;;;;13.75;9.35;;;;;;;;;;5055732;28;20040;-50
2023/03/03 04:42:32;;;;;;;13.18;9.65;;;;;;;;;;5055134;28;20682;-50
2023/03/03 04:44:58;;;;;;;14.05;9.35;;;;;;;;;;5055162;28;20049;-49
2023/03/03 04:47:24;;;;;;;13.15;9.20;;;;;;;;;;5055526;28;20051;-49
2023/03/03 04:49:50;;;;;;;15.60;9.85;;;;;;;;;;5054993;28;20044;-51
2023/03/03 04:52:16;;;;;;;14.68;8.85;;;;;;;;;;5052875;28;20048;-48
2023/03/03 04:54:42;;;;;;;14.27;9.65;;;;;;;;;;5054147;28;20056;-46
2023/03/03 04:57:08;;;;;;;14.50;9.55;;;;;;;;;;5053745;28;20475;-49
2023/03/03 04:59:35;;;;;;;13.45;8.95;;;;;;;;;;5056643;28;20048;-46
2023/03/03 05:02:03;;;;;;;12.93;8.80;;;;;;;;;;5057433;28;20532;-49
2023/03/03 05:04:29;;;;;;;13.88;8.63;;;;;;;;;;5057015;28;20041;-49
2023/03/03 05:06:56;;;;;;;12.40;8.65;;;;;;;;;;5056192;28;20132;-48
2023/03/03 05:09:22;;;;;;;13.65;9.48;;;;;;;;;;5055187;28;20086;-51
2023/03/03 05:11:48;;;;;;;14.25;9.20;;;;;;;;;;5055836;28;20501;-48
2023/03/03 05:14:14;;;;;;;14.10;9.38;;;;;;;;;;5055679;28;20068;-50
2023/03/03 05:16:40;;;;;;;13.80;9.52;;;;;;;;;;5055323;28;20117;-47
2023/03/03 05:19:07;;;;;;;14.38;9.52;;;;;;;;;;5053635;28;20055;-51
2023/03/03 05:21:33;;;;;;;15.35;9.45;;;;;;;;;;5056008;28;20798;-49
2023/03/03 05:23:59;;;;;;;13.85;9.02;;;;;;;;;;5056469;28;20048;-50
2023/03/03 05:26:25;;;;;;;14.13;9.40;;;;;;;;;;5055397;28;20469;-51
2023/03/03 05:28:51;;;;;;;16.10;9.25;;;;;;;;;;5055471;28;20123;-48
2023/03/03 05:31:17;;;;;;;15.18;8.77;;;;;;;;;;5054681;28;21123;-51
2023/03/03 05:33:43;;;;;;;18.00;9.13;;;;;;;;;;5054441;28;20053;-48
2023/03/03 05:36:09;;;;;;;15.48;9.63;;;;;;;;;;5054784;28;20513;-47
2023/03/03 05:38:35;;;;;;;16.23;9.55;;;;;;;;;;5053876;28;20076;-50
2023/03/03 05:41:01;;;;;;;19.75;10.00;;;;;;;;;;5053673;28;20033;-48
2023/03/03 05:43:28;;;;;;;13.05;8.52;;;;;;;;;;5053358;28;20041;-47
2023/03/03 05:45:55;;;;;;;11.95;8.35;;;;;;;;;;5054340;28;20742;-50
2023/03/03 05:48:21;;;;;;;13.20;8.98;;;;;;;;;;5052459;28;20052;-50
2023/03/03 05:50:47;;;;;;;12.52;8.60;;;;;;;;;;5053616;28;20042;-50
2023/03/03 05:53:13;;;;;;;14.68;9.10;;;;;;;;;;5052363;28;20088;-51
2023/03/03 05:55:40;;;;;;;16.77;8.95;;;;;;;;;;5054185;28;20049;-49
2023/03/03 05:58:06;;;;;;;14.45;9.07;;;;;;;;;;5054209;28;20094;-48
2023/03/03 06:00:32;;;;;;;15.85;9.27;;;;;;;;;;5053225;28;20048;-47
2023/03/03 06:02:58;;;;;;;12.93;8.25;;;;;;;;;;5054252;28;21559;-51
2023/03/03 06:05:24;;;;;;;13.15;8.73;;;;;;;;;;5054616;28;20238;-50
2023/03/03 06:07:50;;;;;;;14.70;8.00;;;;;;;;;;5052785;28;20562;-49
2023/03/03 06:10:16;;;;;;;13.50;8.45;;;;;;;;;;5054149;28;20091;-49
2023/03/03 06:12:42;;;;;;;13.18;8.25;;;;;;;;;;5050959;28;20051;-48
2023/03/03 06:15:09;;;;;;;12.98;8.30;;;;;;;;;;5054735;28;20049;-47
2023/03/03 06:17:35;;;;;;;12.10;8.35;;;;;;;;;;5054641;28;20084;-47
2023/03/03 06:20:03;;;;;;;11.40;7.28;;;;;;;;;;5051471;28;20040;-48
2023/03/03 06:22:29;;;;;;;13.60;8.30;;;;;;;;;;5035012;28;20047;-49
2023/03/03 06:24:55;;;;;;;18.50;8.50;;;;;;;;;;5052949;28;20052;-47
2023/03/03 06:27:21;;;;;;;12.75;7.75;;;;;;;;;;5054152;28;20113;-48
2023/03/03 06:29:47;;;;;;;11.73;8.30;;;;;;;;;;5053829;28;20047;-49
2023/03/03 06:32:13;;;;;;;13.65;8.50;;;;;;;;;;5054108;28;20123;-47
2023/03/03 06:34:39;;;;;;;11.45;7.75;;;;;;;;;;5052609;28;20385;-47
2023/03/03 06:37:06;;;;;;;17.50;9.90;;;;;;;;;;5053036;28;20055;-50
2023/03/03 06:39:32;;;;;;;15.63;9.77;;;;;;;;;;5052872;28;20036;-48
2023/03/03 06:41:58;;;;;;;13.95;9.55;;;;;;;;;;5053455;28;20051;-50
2023/03/03 06:44:24;;;;;;;14.57;9.73;;;;;;;;;;5053787;28;20505;-48
2023/03/03 06:46:50;;;;;;;14.00;9.15;;;;;;;;;;5053443;28;20037;-49
2023/03/03 06:49:17;;;;;;;13.40;8.95;;;;;;;;;;5053039;28;20044;-45
2023/03/03 06:51:45;;;;;;;14.18;8.95;;;;;;;;;;5053519;28;20044;-50
2023/03/03 06:54:15;;;;;;;15.00;9.40;;;;;;;;;;5052321;28;20056;-48
2023/03/03 06:56:41;;;;;;;14.25;9.43;;;;;;;;;;5054231;28;20064;-47
2023/03/03 06:59:15;;;;;;;13.93;9.13;;;;;;;;;;5054470;28;20864;-46
2023/03/03 07:01:42;;;;;;;14.65;9.20;;;;;;;;;;5055138;28;20052;-48
2023/03/03 07:04:28;;;;;;;13.90;8.90;;;;;;;;;;5054598;28;20044;-48
2023/03/03 07:06:58;;;;;;;13.93;9.00;;;;;;;;;;5052803;28;20051;-47
2023/03/03 07:09:25;;;;;;;13.85;9.18;;;;;;;;;;5050849;28;20033;-49
2023/03/03 07:11:52;;;;;;;11.98;8.30;;;;;;;;;;5052688;28;20524;-48
2023/03/03 07:14:19;;;;;;;12.05;8.25;;;;;;;;;;5054085;28;20051;-50
2023/03/03 07:16:45;;;;;;;11.00;7.80;;;;;;;;;;5057825;28;20383;-46
2023/03/03 07:19:17;;;;;;;11.55;8.43;;;;;;;;;;5056915;28;20552;-49
2023/03/03 07:21:44;;;;;;;10.18;8.05;;;;;;;;;;5056950;28;20509;-49
2023/03/03 07:24:26;;;;;;;11.48;8.07;;;;;;;;;;5056040;28;20085;-49
2023/03/03 07:27:09;;;;;;;11.77;8.50;;;1.30;99.90;;;;;;5056558;28;20060;-47
2023/03/03 07:29:39;;;;;;;12.60;7.20;;;1.80;99.90;;;;;;5056669;28;20099;-51
2023/03/03 07:32:21;;;;;;;10.73;7.88;;;1.80;99.90;;;;;;5057130;28;20383;-45
2023/03/03 07:34:49;;;;;;;11.23;6.95;;;1.80;99.90;;;;;;5056708;28;20078;-48
2023/03/03 07:37:30;;;;;;;10.18;7.15;;;1.70;99.90;;;;;;5057116;28;20044;-49
2023/03/03 07:39:57;;;;;;;11.23;7.72;;;;;;;;;;5056583;28;20106;-45
2023/03/03 07:42:43;;;;;;;14.52;7.18;;;2.30;99.90;;;;;;5055162;28;20033;-47
2023/03/03 07:45:26;;;;;;;10.23;7.07;;;2.20;99.90;;;;;;5055577;28;20518;-49
2023/03/03 07:48:03;;;;;;;9.85;6.80;;;1.70;99.90;;;;;;5055323;28;20576;-49
2023/03/03 07:50:29;;;;;;;10.90;7.30;;;;;;;;;;5056681;28;20061;-44
2023/03/03 07:52:59;;;;;;;10.35;6.75;;;1.20;99.90;;;;;;5055517;28;20063;-48
2023/03/03 07:55:36;;;;;;;10.73;7.68;;;;;;;;;;5056768;28;20048;-48
2023/03/03 07:58:23;;;;;;;12.85;7.47;;;0.80;99.90;;;;;;5055986;28;20044;-48
2023/03/03 08:01:10;;;;;;;10.02;7.30;;;0.80;99.90;;;;;;5055796;28;20037;-47
2023/03/03 08:03:37;;;;;;;10.82;7.07;;;;;;;;;;5056452;28;20059;-45
2023/03/03 08:06:22;;;;;;;12.30;7.15;;;;;;;;;;5056733;28;20052;-49
2023/03/03 08:08:48;;;;;;;13.40;8.27;;;;;;;;;;5055732;28;20423;-50
2023/03/03 08:11:14;;;;;;;14.20;9.70;;;;;;;;;;5056955;28;20238;-50
2023/03/03 08:13:41;;;;;;;11.43;8.38;;;0.50;99.90;;;;;;5055741;28;20108;-49
2023/03/03 08:16:10;;;;;;;13.73;9.18;;;0.40;99.90;;;;;;5055643;28;20040;-47
2023/03/03 08:18:41;;;;;;;12.57;9.35;;;0.30;99.90;;;;;;5055770;28;20044;-46
2023/03/03 08:21:14;;;;;;;19.15;12.23;;;0.40;99.90;;;;;;5056357;28;20044;-50
2023/03/03 08:23:40;;;;;;;25.15;14.18;;;;;;;;;;5055687;28;20054;-50
2023/03/03 08:26:06;;;;;;;27.25;16.10;;;;;;;;;;5053418;28;20044;-49
2023/03/03 08:28:33;;;;;;;19.13;11.48;;;;;;;;;;5056945;28;20082;-51
2023/03/03 08:30:59;;;;;;;15.13;10.50;;;;;;;;;;5054815;28;20102;-47
2023/03/03 08:33:25;;;;;;;14.68;10.57;;;;;;;;;;5056661;28;20688;-48
2023/03/03 08:35:51;;;;;;;17.13;10.25;;;;;;;;;;5055643;28;20040;-48
2023/03/03 08:38:19;;;;;;;20.02;9.95;;;;;;;;;;5055171;28;20109;-47
2023/03/03 08:40:46;;;;;;;16.73;10.23;;;0.60;99.90;;;;;;5055093;28;20634;-46
2023/03/03 08:43:23;;;;;;;18.75;11.40;;;;;;;;;;5055454;28;20040;-49
2023/03/03 08:45:50;;;;;;;19.88;11.68;;;;;;;;;;5053162;28;20049;-51
2023/03/03 08:48:16;;;;;;;21.27;11.98;;;;;;;;;;5054505;28;20044;-49
2023/03/03 08:50:43;;;;;;;17.40;11.35;;;;;;;;;;5055403;28;20036;-49
2023/03/03 08:53:10;;;;;;;19.17;11.38;;;;;;;;;;5054781;28;20072;-50
2023/03/03 08:55:36;;;;;;;23.70;12.82;;;;;;;;;;5056533;28;20094;-48
2023/03/03 08:58:02;;;;;;;22.48;11.00;;;;;;;;;;5053822;28;20048;-48
2023/03/03 09:00:28;;;;;;;17.13;11.27;;;;;;;;;;5055308;28;20189;-49
2023/03/03 09:02:55;;;;;;;17.88;11.80;;;;;;;;;;5055236;28;20151;-50
2023/03/03 09:05:21;;;;;;;22.75;12.50;;;;;;;;;;5053899;28;20990;-51
2023/03/03 09:07:48;;;;;;;21.38;13.00;;;;;;;;;;5055144;28;20040;-45
2023/03/03 09:10:17;;;;;;;20.98;13.77;;;1.80;99.90;;;;;;5054508;28;20093;-47
2023/03/03 09:12:48;;;;;;;22.40;13.18;;;2.10;99.90;;;;;;5054932;28;20600;-48
2023/03/03 09:15:14;;;;;;;25.85;14.02;;;;;;;;;;5055532;28;20040;-48
2023/03/03 09:17:41;;;;;;;21.50;13.45;;;;;;;;;;5054693;28;20094;-49
2023/03/03 09:20:40;;;;;;;23.08;13.52;;;2.50;99.90;;;;;;5056109;28;20402;-50
2023/03/03 09:23:24;;;;;;;22.58;14.80;;;2.70;99.90;;;;;;5054752;28;20041;-50
2023/03/03 09:25:51;;;;;;;23.40;13.75;;;;;;;;;;5056081;28;20119;-50
2023/03/03 09:28:26;;;;;;;19.73;12.55;;;3.00;99.90;;;;;;5056273;28;20093;-49
2023/03/03 09:30:53;;;;;;;22.88;13.15;;;3.30;99.90;;;;;;5055497;28;20448;-46
2023/03/03 09:33:23;;;;;;;17.50;11.73;;;3.60;99.90;;;;;;5055283;28;20083;-48
2023/03/03 09:35:52;;;;;;;19.63;11.57;;;3.70;99.90;;;;;;5055464;28;20142;-50
2023/03/03 09:38:26;;;;;;;29.25;14.10;;;3.80;99.90;;;;;;5055131;28;21083;-48
2023/03/03 09:41:03;;;;;;;15.93;9.93;;;4.10;99.90;;;;;;5054237;28;20114;-48
2023/03/03 09:43:42;;;;;;;18.50;9.40;;;4.40;99.90;;;;;;5054958;28;21112;-50
2023/03/03 09:46:26;;;;;;;13.10;8.73;;;4.50;99.90;;;;;;5053744;28;20049;-49
2023/03/03 09:49:29;;;;;;;18.38;9.55;;;4.70;99.90;;;;;;5054371;28;20040;-51
2023/03/03 09:52:16;;;;;;;16.50;8.32;;;4.90;99.90;;;;;;5054429;28;20611;-49
2023/03/03 09:55:12;;;;;;;16.35;8.43;;;5.40;99.90;;;;;;5053003;28;20056;-49
2023/03/03 09:57:56;;;;;;;16.83;6.53;;;5.40;99.90;;;;;;5054432;28;20044;-49
2023/03/03 10:00:54;;;;;;;12.95;6.60;;;5.60;99.90;;;;;;5053451;28;20040;-50
2023/03/03 10:03:40;;;;;;;12.45;5.28;;;5.90;99.90;;;;;;5055081;28;20170;-49
2023/03/03 10:06:38;;;;;;;9.27;4.05;;;6.00;99.90;;;;;;5053918;28;20889;-49
2023/03/03 10:09:28;;;;;;;7.22;2.92;;;6.20;99.90;;;;;;5053716;28;20558;-49
2023/03/03 10:12:12;;;;;;;5.82;2.70;;;6.60;99.90;;;;;;5053669;28;20052;-50
2023/03/03 10:15:02;;;;;;;4.50;1.95;;;6.90;99.90;;;;;;5053422;28;20115;-51
2023/03/03 10:17:51;;;;;;;9.77;2.20;;;7.30;99.90;;;;;;5053761;28;20068;-49
2023/03/03 10:20:23;;;;;;;7.95;1.23;;;7.30;99.90;;;;;;5053986;28;20912;-52
2023/03/03 10:22:55;;;;;;;3.05;0.73;;;7.40;99.90;;;;;;5053672;28;20040;-48
2023/03/03 10:25:37;;;;;;;13.15;1.52;;;7.60;99.90;;;;;;5053735;28;20047;-49
2023/03/03 10:28:28;;;;;;;3.20;1.10;;;7.60;99.90;;;;;;5053818;28;20053;-50
2023/03/03 10:30:55;;;;;;;6.78;1.10;;;;;;;;;;5053925;28;20071;-50
2023/03/03 10:33:29;;;;;;;7.07;1.77;;;7.50;99.90;;;;;;5053908;28;20405;-49
2023/03/03 10:35:55;;;;;;;4.38;1.10;;;;;;;;;;5054190;28;20455;-47
2023/03/03 10:39:04;;;;;;;9.77;1.48;;;7.10;99.90;;;;;;5053395;28;20580;-50
2023/03/03 10:41:48;;;;;;;4.35;1.75;;;6.90;99.90;;;;;;5054018;28;20037;-50
2023/03/03 10:44:31;;;;;;;7.45;1.10;;;6.90;99.90;;;;;;5053409;28;20408;-48
2023/03/03 10:46:57;;;;;;;10.70;1.70;;;;;;;;;;5053973;28;20045;-46
2023/03/03 10:49:39;;;;;;;8.15;1.65;;;6.80;99.90;;;;;;5054086;28;20134;-45
2023/03/03 10:52:51;;;;;;;6.68;1.17;;;6.90;99.90;;;;;;5068568;28;20035;-49
2023/03/03 10:55:48;;;;;;;9.95;1.38;;;6.90;99.90;;;;;;5054353;28;20378;-50
2023/03/03 10:58:14;;;;;;;12.13;1.90;;;;;;;;;;5053539;28;20071;-50
2023/03/03 11:01:05;;;;;;;10.07;1.60;;;6.90;99.90;;;;;;5054045;28;20135;-46
2023/03/03 11:03:48;;;;;;;3.50;0.85;;;6.90;99.90;;;;;;5054307;28;20402;-49
2023/03/03 11:06:42;;;;;;;4.63;0.80;;;7.00;99.90;;;;;;5052515;28;20036;-47
2023/03/03 11:09:32;;;;;;;7.50;1.27;;;6.90;99.90;;;;;;5052781;28;20032;-49
2023/03/03 11:12:19;;;;;;;8.07;0.93;;;7.00;99.90;;;;;;5053573;28;20383;-48
2023/03/03 11:15:07;;;;;;;4.28;0.70;;;7.20;99.90;;;;;;5053051;28;20129;-50
2023/03/03 11:18:01;;;;;;;5.32;1.13;;;7.10;99.90;;;;;;5052664;28;20083;-48
2023/03/03 11:20:40;;;;;;;9.30;2.40;;;7.20;99.90;;;;;;5053309;28;20033;-49
2023/03/03 11:23:30;;;;;;;5.70;1.00;;;7.20;99.90;;;;;;5052778;28;20052;-49
2023/03/03 11:26:02;;;;;;;6.50;1.42;;;7.20;99.90;;;;;;5052193;28;20051;-50
2023/03/03 11:28:55;;;;;;;4.88;0.82;;;7.20;99.90;;;;;;5053026;28;20045;-49
2023/03/03 11:31:52;;;;;;;6.68;0.98;;;7.30;99.90;;;;;;5052014;28;20109;-47
2023/03/03 11:34:55;;;;;;;6.93;1.98;;;7.60;99.90;;;;;;5053275;28;22045;-50
2023/03/03 11:37:24;;;;;;;5.78;2.00;;;7.70;99.90;;;;;;5054037;28;20044;-48
2023/03/03 11:39:54;;;;;;;7.25;1.10;;;7.50;99.90;;;;;;5051942;28;20563;-50
2023/03/03 11:42:38;;;;;;;4.95;0.88;;;7.70;99.90;;;;;;5052666;28;20036;-46
2023/03/03 11:45:25;;;;;;;5.60;0.90;;;7.40;99.90;;;;;;5051832;28;20496;-47
2023/03/03 11:47:51;;;;;;;4.93;0.98;;;;;;;;;;5051981;28;20079;-51
2023/03/03 11:50:34;;;;;;;7.50;1.27;;;7.60;99.90;;;;;;5052582;28;20120;-51
2023/03/03 11:53:28;;;;;;;8.00;1.90;;;7.60;99.90;;;;;;5051917;28;20872;-52
2023/03/03 11:56:01;;;;;;;3.50;0.80;;;7.60;99.90;;;;;;5053943;28;20052;-49
2023/03/03 11:59:18;;;;;;;4.13;0.93;;;7.50;99.90;;;;;;5052878;28;20056;-47
2023/03/03 12:01:50;;;;;;;6.15;1.13;;;7.50;99.90;;;;;;5023280;28;20101;-49
2023/03/03 12:04:26;;;;;;;5.05;1.25;;;7.50;99.90;;;;;;5056903;28;20090;-50
2023/03/03 12:06:55;;;;;;;6.65;1.35;;;7.90;99.90;;;;;;5056158;28;20048;-50
2023/03/03 12:09:21;;;;;;;3.63;0.80;;;8.00;99.90;;;;;;5056227;28;20448;-51
2023/03/03 12:11:53;;;;;;;9.73;1.35;;;8.00;99.90;;;;;;5055778;28;20048;-49
2023/03/03 12:14:35;;;;;;;7.00;0.90;;;8.00;99.90;;;;;;5056510;28;20040;-50
2023/03/03 12:17:25;;;;;;;3.13;0.77;;;7.90;99.90;;;;;;5056135;28;20109;-50
2023/03/03 12:20:21;;;;;;;11.40;1.15;;;7.80;99.90;;;;;;5055917;28;20068;-48
2023/03/03 12:23:04;;;;;;;10.27;1.60;;;8.00;99.90;;;;;;5055451;28;20048;-50
2023/03/03 12:25:29;;;;;;;;;;;8.10;99.90;;;;;;5056017;28;20059;-46
2023/03/03 12:28:08;;;;;;;12.10;1.33;;;8.20;99.90;;;;;;5056142;28;20304;-49
2023/03/03 12:31:01;;;;;;;11.30;2.30;;;8.40;99.90;;;;;;5055608;28;20043;-48
2023/03/03 12:33:49;;;;;;;6.72;1.40;;;8.40;99.90;;;;;;5055818;28;20045;-50
2023/03/03 12:36:21;;;;;;;8.35;1.50;;;8.50;99.90;;;;;;5054560;28;20059;-50
2023/03/03 12:38:47;;;;;;;4.57;1.20;;;;;;;;;;5055390;28;20516;-46
2023/03/03 12:41:38;;;;;;;9.85;1.52;;;8.90;99.90;;;;;;5056427;28;20048;-47
2023/03/03 12:44:35;;;;;;;10.70;1.25;;;8.90;99.90;;;;;;5055658;28;20057;-49
2023/03/03 12:47:28;;;;;;;8.18;1.17;;;9.10;99.90;;;;;;5054707;28;20037;-49
2023/03/03 12:50:01;;;;;;;9.27;1.20;;;8.90;99.90;;;;;;5016777;28;20088;-49
2023/03/03 12:52:51;;;;;;;21.60;2.90;;;8.60;99.90;;;;;;5056224;28;20072;-50
2023/03/03 12:55:35;;;;;;;13.63;1.60;;;8.40;99.90;;;;;;5055739;28;21097;-49
2023/03/03 12:58:16;;;;;;;13.30;2.30;;;7.10;99.90;;;;;;5056107;28;20101;-52
2023/03/03 13:00:47;;;;;;;18.15;2.13;;;8.40;99.90;;;;;;5056103;28;20041;-50
2023/03/03 13:03:31;;;;;;;12.63;1.85;;;8.30;99.90;;;;;;5054551;28;20678;-51
2023/03/03 13:06:26;;;;;;;13.10;2.25;;;8.20;99.90;;;;;;5057082;28;20059;-47
2023/03/03 13:09:30;;;;;;;9.98;1.80;;;8.50;99.90;;;;;;5056052;28;20048;-51
2023/03/03 13:12:29;;;;;;;7.40;1.52;;;8.70;99.90;;;;;;4993049;28;20103;-50
2023/03/03 13:14:55;;;;;;;12.60;1.95;;;8.80;99.90;;;;;;5055566;28;20051;-46
2023/03/03 13:17:33;;;;;;;11.13;2.08;;;8.80;99.90;;;;;;5056531;28;20436;-51
2023/03/03 13:20:03;;;;;;;10.38;1.80;;;8.70;99.90;;;;;;5054610;28;20045;-50
2023/03/03 13:22:50;;;;;;;12.27;1.98;;;8.60;99.90;;;;;;5055095;28;20041;-46
2023/03/03 13:25:31;;;;;;;10.77;2.03;;;8.60;99.90;;;;;;5054667;28;20040;-51
2023/03/03 13:28:12;;;;;;;10.95;1.80;;;8.40;99.90;;;;;;5054956;28;20083;-50
2023/03/03 13:30:46;;;;;;;8.52;1.90;;;8.40;99.90;;;;;;5054469;28;20144;-50
2023/03/03 13:33:30;;;;;;;19.20;2.53;;;8.30;99.90;;;;;;5054003;28;20054;-51
2023/03/03 13:35:57;;;;;;;16.50;2.17;;;8.10;99.90;;;;;;5054071;28;20078;-49
2023/03/03 13:38:46;;;;;;;18.92;3.55;;;7.80;99.90;;;;;;5054353;28;20051;-51
2023/03/03 13:41:28;;;;;;;20.00;2.92;;;7.80;99.90;;;;;;5054803;28;20076;-50
2023/03/03 13:44:11;;;;;;;15.43;2.83;;;7.50;99.90;;;;;;5054660;28;20053;-48
2023/03/03 13:46:38;;;;;;;17.38;2.50;;;;;;;;;;5054240;28;20048;-51
2023/03/03 13:49:21;;;;;;;20.10;2.72;;;7.70;99.90;;;;;;5054763;28;20102;-50
2023/03/03 13:51:47;;;;;;;21.40;2.63;;;7.70;99.90;;;;;;5054074;28;20400;-49
2023/03/03 13:54:44;;;;;;;17.80;3.22;;;7.70;99.90;;;;;;5053561;28;20064;-46
2023/03/03 13:57:32;;;;;;;16.95;3.45;;;7.80;99.90;;;;;;5055002;28;20066;-47
2023/03/03 14:00:01;;;;;;;15.88;2.30;;;7.80;99.90;;;;;;5047173;28;20125;-51
2023/03/03 14:02:56;;;;;;;21.17;3.25;;;7.80;99.90;;;;;;5054633;28;20505;-48
2023/03/03 14:05:28;;;;;;;12.50;2.78;;;7.70;99.90;;;;;;5055039;28;20048;-49
2023/03/03 14:08:01;;;;;;;15.63;2.90;;;7.70;99.90;;;;;;5055042;28;20083;-48
2023/03/03 14:10:33;;;;;;;15.77;2.72;;;7.70;99.90;;;;;;5054171;28;20212;-48
2023/03/03 14:13:11;;;;;;;13.68;2.95;;;7.70;99.90;;;;;;5051919;28;20528;-51